sensor_id;sensor_type;location;lat;lon;timestamp;P1;P2;P0
36453;PMS5003;22478;51.740;-1.314;2023-07-08T00:02:08;14;13;
36453;PMS5003;22478;51.740;-1.314;2023-07-08T00:04:36;15;14;
36453;PMS5003;22478;51.740;-1.314;2023-07-08T00:07:04;14;13;
36453;PMS5003;22478;51.740;-1.314;2023-07-08T00:09:32;14;12;
36453;PMS5003;22478;51.740;-1.314;2023-07-08T00:11:59;14;12;
36453;PMS5003;22478;51.740;-1.314;2023-07-08T00:14:27;12;10;
36453;PMS5003;22478;51.740;-1.314;2023-07-08T00:16:54;14;13;
36453;PMS5003;22478;51.740;-1.314;2023-07-08T00:19:21;17;12;
36453;PMS5003;22478;51.740;-1.314;2023-07-08T00:21:49;16;13;
36453;PMS5003;22478;51.740;-1.314;2023-07-08T00:24:17;11;11;
36453;PMS5003;22478;51.740;-1.314;2023-07-08T00:26:44;13;11;
36453;PMS5003;22478;51.740;-1.314;2023-07-08T00:29:11;13;13;
36453;PMS5003;22478;51.740;-1.314;2023-07-08T00:31:39;15;13;
36453;PMS5003;22478;51.740;-1.314;2023-07-08T00:34:07;17;14;
36453;PMS5003;22478;51.740;-1.314;2023-07-08T00:36:34;15;10;
36453;PMS5003;22478;51.740;-1.314;2023-07-08T00:39:02;16;14;
36453;PMS5003;22478;51.740;-1.314;2023-07-08T00:41:29;11;11;
36453;PMS5003;22478;51.740;-1.314;2023-07-08T00:44:00;10;10;
36453;PMS5003;22478;51.740;-1.314;2023-07-08T00:46:31;20;17;
36453;PMS5003;22478;51.740;-1.314;2023-07-08T00:49:09;13;11;
36453;PMS5003;22478;51.740;-1.314;2023-07-08T00:51:48;14;11;
36453;PMS5003;22478;51.740;-1.314;2023-07-08T00:54:16;12;12;
36453;PMS5003;22478;51.740;-1.314;2023-07-08T00:56:46;16;12;
36453;PMS5003;22478;51.740;-1.314;2023-07-08T00:59:19;16;13;
36453;PMS5003;22478;51.740;-1.314;2023-07-08T01:01:50;14;10;
36453;PMS5003;22478;51.740;-1.314;2023-07-08T01:04:21;14;12;
36453;PMS5003;22478;51.740;-1.314;2023-07-08T01:06:52;13;12;
36453;PMS5003;22478;51.740;-1.314;2023-07-08T01:09:22;17;12;
36453;PMS5003;22478;51.740;-1.314;2023-07-08T01:11:53;11;9;
36453;PMS5003;22478;51.740;-1.314;2023-07-08T01:14:22;13;12;
36453;PMS5003;22478;51.740;-1.314;2023-07-08T01:16:53;14;13;
36453;PMS5003;22478;51.740;-1.314;2023-07-08T01:19:21;13;11;
36453;PMS5003;22478;51.740;-1.314;2023-07-08T01:21:57;13;11;
36453;PMS5003;22478;51.740;-1.314;2023-07-08T01:24:25;15;14;
36453;PMS5003;22478;51.740;-1.314;2023-07-08T01:26:54;11;11;
36453;PMS5003;22478;51.740;-1.314;2023-07-08T01:29:21;13;9;
36453;PMS5003;22478;51.740;-1.314;2023-07-08T01:31:49;11;11;
36453;PMS5003;22478;51.740;-1.314;2023-07-08T01:34:17;14;10;
36453;PMS5003;22478;51.740;-1.314;2023-07-08T01:36:46;15;12;
36453;PMS5003;22478;51.740;-1.314;2023-07-08T01:39:18;15;10;
36453;PMS5003;22478;51.740;-1.314;2023-07-08T01:41:48;11;8;
36453;PMS5003;22478;51.740;-1.314;2023-07-08T01:44:19;12;11;
36453;PMS5003;22478;51.740;-1.314;2023-07-08T01:46:56;13;11;
36453;PMS5003;22478;51.740;-1.314;2023-07-08T01:49:27;12;12;
36453;PMS5003;22478;51.740;-1.314;2023-07-08T01:51:54;11;10;
36453;PMS5003;22478;51.740;-1.314;2023-07-08T01:54:22;11;10;
36453;PMS5003;22478;51.740;-1.314;2023-07-08T01:56:54;14;9;
36453;PMS5003;22478;51.740;-1.314;2023-07-08T01:59:21;10;10;
36453;PMS5003;22478;51.740;-1.314;2023-07-08T02:01:49;11;11;
36453;PMS5003;22478;51.740;-1.314;2023-07-08T02:04:16;16;13;
36453;PMS5003;22478;51.740;-1.314;2023-07-08T02:06:43;11;9;
36453;PMS5003;22478;51.740;-1.314;2023-07-08T02:09:18;14;11;
36453;PMS5003;22478;51.740;-1.314;2023-07-08T02:11:45;10;9;
36453;PMS5003;22478;51.740;-1.314;2023-07-08T02:14:12;12;12;
36453;PMS5003;22478;51.740;-1.314;2023-07-08T02:16:38;17;12;
36453;PMS5003;22478;51.740;-1.314;2023-07-08T02:19:05;12;12;
36453;PMS5003;22478;51.740;-1.314;2023-07-08T02:21:32;11;10;
36453;PMS5003;22478;51.740;-1.314;2023-07-08T02:24:00;10;10;
36453;PMS5003;22478;51.740;-1.314;2023-07-08T02:26:27;13;12;
36453;PMS5003;22478;51.740;-1.314;2023-07-08T02:28:54;9;9;
36453;PMS5003;22478;51.740;-1.314;2023-07-08T02:31:22;13;10;
36453;PMS5003;22478;51.740;-1.314;2023-07-08T02:33:49;12;12;
36453;PMS5003;22478;51.740;-1.314;2023-07-08T02:36:16;15;12;
36453;PMS5003;22478;51.740;-1.314;2023-07-08T02:38:43;12;11;
36453;PMS5003;22478;51.740;-1.314;2023-07-08T02:41:10;10;9;
36453;PMS5003;22478;51.740;-1.314;2023-07-08T02:43:38;12;12;
36453;PMS5003;22478;51.740;-1.314;2023-07-08T02:46:05;9;9;
36453;PMS5003;22478;51.740;-1.314;2023-07-08T02:48:33;13;11;
36453;PMS5003;22478;51.740;-1.314;2023-07-08T02:51:00;11;9;
36453;PMS5003;22478;51.740;-1.314;2023-07-08T02:53:28;9;9;
36453;PMS5003;22478;51.740;-1.314;2023-07-08T02:55:56;9;9;
36453;PMS5003;22478;51.740;-1.314;2023-07-08T02:58:23;8;8;
36453;PMS5003;22478;51.740;-1.314;2023-07-08T03:00:51;10;8;
36453;PMS5003;22478;51.740;-1.314;2023-07-08T03:03:18;8;8;
36453;PMS5003;22478;51.740;-1.314;2023-07-08T03:05:53;11;9;
36453;PMS5003;22478;51.740;-1.314;2023-07-08T03:08:21;9;8;
36453;PMS5003;22478;51.740;-1.314;2023-07-08T03:10:53;12;11;
36453;PMS5003;22478;51.740;-1.314;2023-07-08T03:13:22;10;8;
36453;PMS5003;22478;51.740;-1.314;2023-07-08T03:15:49;11;11;
36453;PMS5003;22478;51.740;-1.314;2023-07-08T03:18:17;12;9;
36453;PMS5003;22478;51.740;-1.314;2023-07-08T03:20:44;14;10;
36453;PMS5003;22478;51.740;-1.314;2023-07-08T03:23:13;10;9;
36453;PMS5003;22478;51.740;-1.314;2023-07-08T03:25:41;11;10;
36453;PMS5003;22478;51.740;-1.314;2023-07-08T03:28:08;11;7;
36453;PMS5003;22478;51.740;-1.314;2023-07-08T03:30:35;9;8;
36453;PMS5003;22478;51.740;-1.314;2023-07-08T03:33:03;16;12;
36453;PMS5003;22478;51.740;-1.314;2023-07-08T03:35:30;8;7;
36453;PMS5003;22478;51.740;-1.314;2023-07-08T03:37:56;13;11;
36453;PMS5003;22478;51.740;-1.314;2023-07-08T03:40:24;12;11;
36453;PMS5003;22478;51.740;-1.314;2023-07-08T03:42:50;9;9;
36453;PMS5003;22478;51.740;-1.314;2023-07-08T03:45:18;11;8;
36453;PMS5003;22478;51.740;-1.314;2023-07-08T03:47:45;12;9;
36453;PMS5003;22478;51.740;-1.314;2023-07-08T03:50:17;9;8;
36453;PMS5003;22478;51.740;-1.314;2023-07-08T03:52:46;10;9;
36453;PMS5003;22478;51.740;-1.314;2023-07-08T03:55:13;9;8;
36453;PMS5003;22478;51.740;-1.314;2023-07-08T03:57:41;13;11;
36453;PMS5003;22478;51.740;-1.314;2023-07-08T04:00:08;11;11;
36453;PMS5003;22478;51.740;-1.314;2023-07-08T04:02:37;10;9;
36453;PMS5003;22478;51.740;-1.314;2023-07-08T04:05:05;11;11;
36453;PMS5003;22478;51.740;-1.314;2023-07-08T04:07:33;10;9;
36453;PMS5003;22478;51.740;-1.314;2023-07-08T04:10:00;10;9;
36453;PMS5003;22478;51.740;-1.314;2023-07-08T04:12:27;11;10;
36453;PMS5003;22478;51.740;-1.314;2023-07-08T04:14:55;10;10;
36453;PMS5003;22478;51.740;-1.314;2023-07-08T04:17:22;14;12;
36453;PMS5003;22478;51.740;-1.314;2023-07-08T04:19:50;10;9;
36453;PMS5003;22478;51.740;-1.314;2023-07-08T04:22:17;10;8;
36453;PMS5003;22478;51.740;-1.314;2023-07-08T04:24:45;15;12;
36453;PMS5003;22478;51.740;-1.314;2023-07-08T04:27:12;10;10;
36453;PMS5003;22478;51.740;-1.314;2023-07-08T04:29:40;12;10;
36453;PMS5003;22478;51.740;-1.314;2023-07-08T04:32:08;10;9;
36453;PMS5003;22478;51.740;-1.314;2023-07-08T04:34:35;13;10;
36453;PMS5003;22478;51.740;-1.314;2023-07-08T04:37:02;11;7;
36453;PMS5003;22478;51.740;-1.314;2023-07-08T04:39:30;12;10;
36453;PMS5003;22478;51.740;-1.314;2023-07-08T04:41:58;12;12;
36453;PMS5003;22478;51.740;-1.314;2023-07-08T04:44:25;10;10;
36453;PMS5003;22478;51.740;-1.314;2023-07-08T04:46:52;15;9;
36453;PMS5003;22478;51.740;-1.314;2023-07-08T04:49:23;14;10;
36453;PMS5003;22478;51.740;-1.314;2023-07-08T04:51:51;13;10;
36453;PMS5003;22478;51.740;-1.314;2023-07-08T04:54:18;11;10;
36453;PMS5003;22478;51.740;-1.314;2023-07-08T04:56:47;9;9;
36453;PMS5003;22478;51.740;-1.314;2023-07-08T04:59:16;13;10;
36453;PMS5003;22478;51.740;-1.314;2023-07-08T05:01:44;11;10;
36453;PMS5003;22478;51.740;-1.314;2023-07-08T05:04:13;13;10;
36453;PMS5003;22478;51.740;-1.314;2023-07-08T05:06:42;9;8;
36453;PMS5003;22478;51.740;-1.314;2023-07-08T05:09:09;12;11;
36453;PMS5003;22478;51.740;-1.314;2023-07-08T05:11:37;9;8;
36453;PMS5003;22478;51.740;-1.314;2023-07-08T05:14:05;15;11;
36453;PMS5003;22478;51.740;-1.314;2023-07-08T05:16:33;13;10;
36453;PMS5003;22478;51.740;-1.314;2023-07-08T05:19:01;13;10;
36453;PMS5003;22478;51.740;-1.314;2023-07-08T05:21:29;11;9;
36453;PMS5003;22478;51.740;-1.314;2023-07-08T05:23:56;11;10;
36453;PMS5003;22478;51.740;-1.314;2023-07-08T05:26:23;11;11;
36453;PMS5003;22478;51.740;-1.314;2023-07-08T05:28:50;19;11;
36453;PMS5003;22478;51.740;-1.314;2023-07-08T05:31:17;11;9;
36453;PMS5003;22478;51.740;-1.314;2023-07-08T05:33:44;12;11;
36453;PMS5003;22478;51.740;-1.314;2023-07-08T05:36:11;13;13;
36453;PMS5003;22478;51.740;-1.314;2023-07-08T05:38:38;12;9;
36453;PMS5003;22478;51.740;-1.314;2023-07-08T05:41:05;10;9;
36453;PMS5003;22478;51.740;-1.314;2023-07-08T05:43:32;9;9;
36453;PMS5003;22478;51.740;-1.314;2023-07-08T05:46:00;11;9;
36453;PMS5003;22478;51.740;-1.314;2023-07-08T05:48:29;15;11;
36453;PMS5003;22478;51.740;-1.314;2023-07-08T05:50:55;13;12;
36453;PMS5003;22478;51.740;-1.314;2023-07-08T05:53:23;12;10;
36453;PMS5003;22478;51.740;-1.314;2023-07-08T05:55:51;16;12;
36453;PMS5003;22478;51.740;-1.314;2023-07-08T05:58:18;10;9;
36453;PMS5003;22478;51.740;-1.314;2023-07-08T06:00:45;12;11;
36453;PMS5003;22478;51.740;-1.314;2023-07-08T06:03:13;14;12;
36453;PMS5003;22478;51.740;-1.314;2023-07-08T06:05:40;12;12;
36453;PMS5003;22478;51.740;-1.314;2023-07-08T06:08:08;11;10;
36453;PMS5003;22478;51.740;-1.314;2023-07-08T06:10:40;11;10;
36453;PMS5003;22478;51.740;-1.314;2023-07-08T06:13:08;16;14;
36453;PMS5003;22478;51.740;-1.314;2023-07-08T06:15:35;13;10;
36453;PMS5003;22478;51.740;-1.314;2023-07-08T06:18:02;13;13;
36453;PMS5003;22478;51.740;-1.314;2023-07-08T06:20:29;15;12;
36453;PMS5003;22478;51.740;-1.314;2023-07-08T06:22:56;14;10;
36453;PMS5003;22478;51.740;-1.314;2023-07-08T06:25:23;9;9;
36453;PMS5003;22478;51.740;-1.314;2023-07-08T06:27:50;14;10;
36453;PMS5003;22478;51.740;-1.314;2023-07-08T06:30:17;12;12;
36453;PMS5003;22478;51.740;-1.314;2023-07-08T06:32:45;13;11;
36453;PMS5003;22478;51.740;-1.314;2023-07-08T06:35:12;12;10;
36453;PMS5003;22478;51.740;-1.314;2023-07-08T06:37:39;11;11;
36453;PMS5003;22478;51.740;-1.314;2023-07-08T06:40:07;9;9;
36453;PMS5003;22478;51.740;-1.314;2023-07-08T06:42:35;12;9;
36453;PMS5003;22478;51.740;-1.314;2023-07-08T06:45:02;11;9;
36453;PMS5003;22478;51.740;-1.314;2023-07-08T06:47:30;12;10;
36453;PMS5003;22478;51.740;-1.314;2023-07-08T06:49:57;13;12;
36453;PMS5003;22478;51.740;-1.314;2023-07-08T06:52:24;13;12;
36453;PMS5003;22478;51.740;-1.314;2023-07-08T06:54:51;12;12;
36453;PMS5003;22478;51.740;-1.314;2023-07-08T06:57:18;9;7;
36453;PMS5003;22478;51.740;-1.314;2023-07-08T06:59:45;11;8;
36453;PMS5003;22478;51.740;-1.314;2023-07-08T07:02:13;8;7;
36453;PMS5003;22478;51.740;-1.314;2023-07-08T07:04:40;11;10;
36453;PMS5003;22478;51.740;-1.314;2023-07-08T07:07:07;11;11;
36453;PMS5003;22478;51.740;-1.314;2023-07-08T07:09:34;13;12;
36453;PMS5003;22478;51.740;-1.314;2023-07-08T07:12:02;11;11;
36453;PMS5003;22478;51.740;-1.314;2023-07-08T07:14:31;13;10;
36453;PMS5003;22478;51.740;-1.314;2023-07-08T07:17:00;10;9;
36453;PMS5003;22478;51.740;-1.314;2023-07-08T07:19:27;8;8;
36453;PMS5003;22478;51.740;-1.314;2023-07-08T07:21:54;9;9;
36453;PMS5003;22478;51.740;-1.314;2023-07-08T07:24:21;9;9;
36453;PMS5003;22478;51.740;-1.314;2023-07-08T07:26:49;10;9;
36453;PMS5003;22478;51.740;-1.314;2023-07-08T07:29:17;8;8;
36453;PMS5003;22478;51.740;-1.314;2023-07-08T07:31:46;8;7;
36453;PMS5003;22478;51.740;-1.314;2023-07-08T07:34:14;13;8;
36453;PMS5003;22478;51.740;-1.314;2023-07-08T07:36:42;7;7;
36453;PMS5003;22478;51.740;-1.314;2023-07-08T07:39:09;9;8;
36453;PMS5003;22478;51.740;-1.314;2023-07-08T07:41:37;10;9;
36453;PMS5003;22478;51.740;-1.314;2023-07-08T07:44:04;11;8;
36453;PMS5003;22478;51.740;-1.314;2023-07-08T07:46:31;9;7;
36453;PMS5003;22478;51.740;-1.314;2023-07-08T07:48:58;11;11;
36453;PMS5003;22478;51.740;-1.314;2023-07-08T07:51:25;9;9;
36453;PMS5003;22478;51.740;-1.314;2023-07-08T07:53:52;8;8;
36453;PMS5003;22478;51.740;-1.314;2023-07-08T07:56:19;9;7;
36453;PMS5003;22478;51.740;-1.314;2023-07-08T07:58:47;8;8;
36453;PMS5003;22478;51.740;-1.314;2023-07-08T08:01:14;9;8;
36453;PMS5003;22478;51.740;-1.314;2023-07-08T08:03:41;9;8;
36453;PMS5003;22478;51.740;-1.314;2023-07-08T08:06:08;9;7;
36453;PMS5003;22478;51.740;-1.314;2023-07-08T08:08:35;7;6;
36453;PMS5003;22478;51.740;-1.314;2023-07-08T08:11:02;7;6;
36453;PMS5003;22478;51.740;-1.314;2023-07-08T08:13:29;6;6;
36453;PMS5003;22478;51.740;-1.314;2023-07-08T08:15:56;9;6;
36453;PMS5003;22478;51.740;-1.314;2023-07-08T08:18:24;7;6;
36453;PMS5003;22478;51.740;-1.314;2023-07-08T08:20:52;5;5;
36453;PMS5003;22478;51.740;-1.314;2023-07-08T08:23:19;7;7;
36453;PMS5003;22478;51.740;-1.314;2023-07-08T08:25:47;7;7;
36453;PMS5003;22478;51.740;-1.314;2023-07-08T08:28:16;7;7;
36453;PMS5003;22478;51.740;-1.314;2023-07-08T08:30:46;5;4;
36453;PMS5003;22478;51.740;-1.314;2023-07-08T08:33:14;8;5;
36453;PMS5003;22478;51.740;-1.314;2023-07-08T08:35:41;8;8;
36453;PMS5003;22478;51.740;-1.314;2023-07-08T08:38:09;7;6;
36453;PMS5003;22478;51.740;-1.314;2023-07-08T08:40:36;5;5;
36453;PMS5003;22478;51.740;-1.314;2023-07-08T08:43:06;4;4;
36453;PMS5003;22478;51.740;-1.314;2023-07-08T08:45:39;4;4;
36453;PMS5003;22478;51.740;-1.314;2023-07-08T08:48:15;7;4;
36453;PMS5003;22478;51.740;-1.314;2023-07-08T08:50:49;6;6;
36453;PMS5003;22478;51.740;-1.314;2023-07-08T08:53:19;6;6;
36453;PMS5003;22478;51.740;-1.314;2023-07-08T08:55:50;10;10;
36453;PMS5003;22478;51.740;-1.314;2023-07-08T08:58:27;6;6;
36453;PMS5003;22478;51.740;-1.314;2023-07-08T09:01:04;7;4;
36453;PMS5003;22478;51.740;-1.314;2023-07-08T09:03:37;8;7;
36453;PMS5003;22478;51.740;-1.314;2023-07-08T09:06:11;6;6;
36453;PMS5003;22478;51.740;-1.314;2023-07-08T09:08:40;7;7;
36453;PMS5003;22478;51.740;-1.314;2023-07-08T09:11:15;5;4;
36453;PMS5003;22478;51.740;-1.314;2023-07-08T09:13:50;6;5;
36453;PMS5003;22478;51.740;-1.314;2023-07-08T09:16:20;5;5;
36453;PMS5003;22478;51.740;-1.314;2023-07-08T09:18:56;6;5;
36453;PMS5003;22478;51.740;-1.314;2023-07-08T09:21:26;5;4;
36453;PMS5003;22478;51.740;-1.314;2023-07-08T09:23:59;5;3;
36453;PMS5003;22478;51.740;-1.314;2023-07-08T09:26:31;6;6;
36453;PMS5003;22478;51.740;-1.314;2023-07-08T09:28:59;4;4;
36453;PMS5003;22478;51.740;-1.314;2023-07-08T09:31:27;5;4;
36453;PMS5003;22478;51.740;-1.314;2023-07-08T09:34:05;5;3;
36453;PMS5003;22478;51.740;-1.314;2023-07-08T09:36:37;5;4;
36453;PMS5003;22478;51.740;-1.314;2023-07-08T09:39:09;3;3;
36453;PMS5003;22478;51.740;-1.314;2023-07-08T09:41:38;6;6;
36453;PMS5003;22478;51.740;-1.314;2023-07-08T09:44:08;4;4;
36453;PMS5003;22478;51.740;-1.314;2023-07-08T09:46:42;4;2;
36453;PMS5003;22478;51.740;-1.314;2023-07-08T09:49:19;3;2;
36453;PMS5003;22478;51.740;-1.314;2023-07-08T09:51:49;3;3;
36453;PMS5003;22478;51.740;-1.314;2023-07-08T09:54:18;1;1;
36453;PMS5003;22478;51.740;-1.314;2023-07-08T09:56:52;5;5;
36453;PMS5003;22478;51.740;-1.314;2023-07-08T09:59:23;5;5;
36453;PMS5003;22478;51.740;-1.314;2023-07-08T10:01:59;3;3;
36453;PMS5003;22478;51.740;-1.314;2023-07-08T10:04:27;3;2;
36453;PMS5003;22478;51.740;-1.314;2023-07-08T10:06:55;8;4;
36453;PMS5003;22478;51.740;-1.314;2023-07-08T10:09:24;4;4;
36453;PMS5003;22478;51.740;-1.314;2023-07-08T10:11:53;5;3;
36453;PMS5003;22478;51.740;-1.314;2023-07-08T10:14:27;6;4;
36453;PMS5003;22478;51.740;-1.314;2023-07-08T10:17:00;4;4;
36453;PMS5003;22478;51.740;-1.314;2023-07-08T10:19:27;4;3;
36453;PMS5003;22478;51.740;-1.314;2023-07-08T10:21:59;4;4;
36453;PMS5003;22478;51.740;-1.314;2023-07-08T10:24:42;5;5;
36453;PMS5003;22478;51.740;-1.314;2023-07-08T10:27:21;4;4;
36453;PMS5003;22478;51.740;-1.314;2023-07-08T10:29:57;13;11;
36453;PMS5003;22478;51.740;-1.314;2023-07-08T10:32:37;6;5;
36453;PMS5003;22478;51.740;-1.314;2023-07-08T10:35:16;4;4;
36453;PMS5003;22478;51.740;-1.314;2023-07-08T10:37:50;9;7;
36453;PMS5003;22478;51.740;-1.314;2023-07-08T10:40:45;8;6;
36453;PMS5003;22478;51.740;-1.314;2023-07-08T10:43:20;22;18;
36453;PMS5003;22478;51.740;-1.314;2023-07-08T10:45:59;16;14;
36453;PMS5003;22478;51.740;-1.314;2023-07-08T10:48:42;25;23;
36453;PMS5003;22478;51.740;-1.314;2023-07-08T10:51:23;22;21;
36453;PMS5003;22478;51.740;-1.314;2023-07-08T10:54:05;31;27;
36453;PMS5003;22478;51.740;-1.314;2023-07-08T10:56:48;35;34;
36453;PMS5003;22478;51.740;-1.314;2023-07-08T10:59:28;46;45;
36453;PMS5003;22478;51.740;-1.314;2023-07-08T11:02:13;54;52;
36453;PMS5003;22478;51.740;-1.314;2023-07-08T11:04:54;54;54;
36453;PMS5003;22478;51.740;-1.314;2023-07-08T11:07:32;66;66;
36453;PMS5003;22478;51.740;-1.314;2023-07-08T11:10:07;70;70;
36453;PMS5003;22478;51.740;-1.314;2023-07-08T11:12:42;79;79;
36453;PMS5003;22478;51.740;-1.314;2023-07-08T11:15:14;72;72;
36453;PMS5003;22478;51.740;-1.314;2023-07-08T11:17:47;76;75;
36453;PMS5003;22478;51.740;-1.314;2023-07-08T11:20:21;75;73;
36453;PMS5003;22478;51.740;-1.314;2023-07-08T11:22:54;57;55;
36453;PMS5003;22478;51.740;-1.314;2023-07-08T11:25:27;61;59;
36453;PMS5003;22478;51.740;-1.314;2023-07-08T11:27:56;61;61;
36453;PMS5003;22478;51.740;-1.314;2023-07-08T11:30:29;61;58;
36453;PMS5003;22478;51.740;-1.314;2023-07-08T11:33:00;33;33;
36453;PMS5003;22478;51.740;-1.314;2023-07-08T11:35:35;34;34;
36453;PMS5003;22478;51.740;-1.314;2023-07-08T11:38:06;15;14;
36453;PMS5003;22478;51.740;-1.314;2023-07-08T11:40:49;18;15;
36453;PMS5003;22478;51.740;-1.314;2023-07-08T11:43:20;8;7;
36453;PMS5003;22478;51.740;-1.314;2023-07-08T11:45:49;12;9;
36453;PMS5003;22478;51.740;-1.314;2023-07-08T11:48:21;11;9;
36453;PMS5003;22478;51.740;-1.314;2023-07-08T11:50:52;9;8;
36453;PMS5003;22478;51.740;-1.314;2023-07-08T11:53:37;9;9;
36453;PMS5003;22478;51.740;-1.314;2023-07-08T11:56:22;12;7;
36453;PMS5003;22478;51.740;-1.314;2023-07-08T11:58:57;6;5;
36453;PMS5003;22478;51.740;-1.314;2023-07-08T12:01:34;6;6;
36453;PMS5003;22478;51.740;-1.314;2023-07-08T12:04:51;7;6;
36453;PMS5003;22478;51.740;-1.314;2023-07-08T12:07:30;9;7;
36453;PMS5003;22478;51.740;-1.314;2023-07-08T12:10:00;4;4;
36453;PMS5003;22478;51.740;-1.314;2023-07-08T12:12:32;7;6;
36453;PMS5003;22478;51.740;-1.314;2023-07-08T12:15:12;6;6;
36453;PMS5003;22478;51.740;-1.314;2023-07-08T12:17:43;4;4;
36453;PMS5003;22478;51.740;-1.314;2023-07-08T12:20:15;5;5;
36453;PMS5003;22478;51.740;-1.314;2023-07-08T12:22:45;6;5;
36453;PMS5003;22478;51.740;-1.314;2023-07-08T12:25:13;8;6;
36453;PMS5003;22478;51.740;-1.314;2023-07-08T12:27:41;5;5;
36453;PMS5003;22478;51.740;-1.314;2023-07-08T12:30:09;7;7;
36453;PMS5003;22478;51.740;-1.314;2023-07-08T12:32:38;8;7;
36453;PMS5003;22478;51.740;-1.314;2023-07-08T12:35:08;6;6;
36453;PMS5003;22478;51.740;-1.314;2023-07-08T12:37:45;8;6;
36453;PMS5003;22478;51.740;-1.314;2023-07-08T12:40:13;8;7;
36453;PMS5003;22478;51.740;-1.314;2023-07-08T12:42:41;7;6;
36453;PMS5003;22478;51.740;-1.314;2023-07-08T12:45:12;7;7;
36453;PMS5003;22478;51.740;-1.314;2023-07-08T12:47:42;11;9;
36453;PMS5003;22478;51.740;-1.314;2023-07-08T12:50:10;13;8;
36453;PMS5003;22478;51.740;-1.314;2023-07-08T12:52:38;12;8;
36453;PMS5003;22478;51.740;-1.314;2023-07-08T12:55:08;7;7;
36453;PMS5003;22478;51.740;-1.314;2023-07-08T12:57:36;6;5;
36453;PMS5003;22478;51.740;-1.314;2023-07-08T13:00:04;9;9;
36453;PMS5003;22478;51.740;-1.314;2023-07-08T13:02:32;10;9;
36453;PMS5003;22478;51.740;-1.314;2023-07-08T13:04:59;8;7;
36453;PMS5003;22478;51.740;-1.314;2023-07-08T13:07:32;6;6;
36453;PMS5003;22478;51.740;-1.314;2023-07-08T13:10:02;9;9;
36453;PMS5003;22478;51.740;-1.314;2023-07-08T13:12:36;7;6;
36453;PMS5003;22478;51.740;-1.314;2023-07-08T13:15:08;8;7;
36453;PMS5003;22478;51.740;-1.314;2023-07-08T13:17:40;10;10;
36453;PMS5003;22478;51.740;-1.314;2023-07-08T13:20:08;9;7;
36453;PMS5003;22478;51.740;-1.314;2023-07-08T13:22:40;7;7;
36453;PMS5003;22478;51.740;-1.314;2023-07-08T13:25:12;7;7;
36453;PMS5003;22478;51.740;-1.314;2023-07-08T13:27:42;8;8;
36453;PMS5003;22478;51.740;-1.314;2023-07-08T13:30:21;8;8;
36453;PMS5003;22478;51.740;-1.314;2023-07-08T13:32:52;8;6;
36453;PMS5003;22478;51.740;-1.314;2023-07-08T13:35:21;6;6;
36453;PMS5003;22478;51.740;-1.314;2023-07-08T13:37:51;11;7;
36453;PMS5003;22478;51.740;-1.314;2023-07-08T13:40:18;8;7;
36453;PMS5003;22478;51.740;-1.314;2023-07-08T13:42:47;6;6;
36453;PMS5003;22478;51.740;-1.314;2023-07-08T13:45:17;7;6;
36453;PMS5003;22478;51.740;-1.314;2023-07-08T13:47:57;8;6;
36453;PMS5003;22478;51.740;-1.314;2023-07-08T13:50:27;8;6;
36453;PMS5003;22478;51.740;-1.314;2023-07-08T13:52:57;6;6;
36453;PMS5003;22478;51.740;-1.314;2023-07-08T13:55:24;8;8;
36453;PMS5003;22478;51.740;-1.314;2023-07-08T13:57:56;7;6;
36453;PMS5003;22478;51.740;-1.314;2023-07-08T14:00:25;8;7;
36453;PMS5003;22478;51.740;-1.314;2023-07-08T14:02:56;7;7;
36453;PMS5003;22478;51.740;-1.314;2023-07-08T14:05:23;6;6;
36453;PMS5003;22478;51.740;-1.314;2023-07-08T14:07:50;9;9;
36453;PMS5003;22478;51.740;-1.314;2023-07-08T14:10:17;7;6;
36453;PMS5003;22478;51.740;-1.314;2023-07-08T14:12:44;8;6;
36453;PMS5003;22478;51.740;-1.314;2023-07-08T14:15:11;7;7;
36453;PMS5003;22478;51.740;-1.314;2023-07-08T14:17:38;7;6;
36453;PMS5003;22478;51.740;-1.314;2023-07-08T14:20:08;9;7;
36453;PMS5003;22478;51.740;-1.314;2023-07-08T14:22:41;7;7;
36453;PMS5003;22478;51.740;-1.314;2023-07-08T14:25:09;7;7;
36453;PMS5003;22478;51.740;-1.314;2023-07-08T14:27:36;9;8;
36453;PMS5003;22478;51.740;-1.314;2023-07-08T14:30:03;6;6;
36453;PMS5003;22478;51.740;-1.314;2023-07-08T14:32:31;7;5;
36453;PMS5003;22478;51.740;-1.314;2023-07-08T14:35:00;5;5;
36453;PMS5003;22478;51.740;-1.314;2023-07-08T14:37:39;5;4;
36453;PMS5003;22478;51.740;-1.314;2023-07-08T14:40:11;6;6;
36453;PMS5003;22478;51.740;-1.314;2023-07-08T14:42:47;4;2;
36453;PMS5003;22478;51.740;-1.314;2023-07-08T14:45:16;6;6;
36453;PMS5003;22478;51.740;-1.314;2023-07-08T14:47:43;5;5;
36453;PMS5003;22478;51.740;-1.314;2023-07-08T14:50:12;5;5;
36453;PMS5003;22478;51.740;-1.314;2023-07-08T14:52:41;8;6;
36453;PMS5003;22478;51.740;-1.314;2023-07-08T14:55:09;6;5;
36453;PMS5003;22478;51.740;-1.314;2023-07-08T14:57:40;8;5;
36453;PMS5003;22478;51.740;-1.314;2023-07-08T15:00:11;4;4;
36453;PMS5003;22478;51.740;-1.314;2023-07-08T15:02:40;5;5;
36453;PMS5003;22478;51.740;-1.314;2023-07-08T15:05:12;5;5;
36453;PMS5003;22478;51.740;-1.314;2023-07-08T15:07:41;3;3;
36453;PMS5003;22478;51.740;-1.314;2023-07-08T15:10:08;4;3;
36453;PMS5003;22478;51.740;-1.314;2023-07-08T15:12:35;6;3;
36453;PMS5003;22478;51.740;-1.314;2023-07-08T15:15:04;6;4;
36453;PMS5003;22478;51.740;-1.314;2023-07-08T15:17:31;6;5;
36453;PMS5003;22478;51.740;-1.314;2023-07-08T15:19:58;5;5;
36453;PMS5003;22478;51.740;-1.314;2023-07-08T15:22:25;3;3;
36453;PMS5003;22478;51.740;-1.314;2023-07-08T15:24:52;5;5;
36453;PMS5003;22478;51.740;-1.314;2023-07-08T15:27:20;2;2;
36453;PMS5003;22478;51.740;-1.314;2023-07-08T15:29:49;3;3;
36453;PMS5003;22478;51.740;-1.314;2023-07-08T15:32:17;4;4;
36453;PMS5003;22478;51.740;-1.314;2023-07-08T15:34:44;4;4;
36453;PMS5003;22478;51.740;-1.314;2023-07-08T15:37:10;5;4;
36453;PMS5003;22478;51.740;-1.314;2023-07-08T15:39:37;5;3;
36453;PMS5003;22478;51.740;-1.314;2023-07-08T15:42:08;5;5;
36453;PMS5003;22478;51.740;-1.314;2023-07-08T15:44:37;8;5;
36453;PMS5003;22478;51.740;-1.314;2023-07-08T15:47:07;6;4;
36453;PMS5003;22478;51.740;-1.314;2023-07-08T15:49:39;5;4;
36453;PMS5003;22478;51.740;-1.314;2023-07-08T15:52:06;8;6;
36453;PMS5003;22478;51.740;-1.314;2023-07-08T15:54:36;6;6;
36453;PMS5003;22478;51.740;-1.314;2023-07-08T15:57:05;7;6;
36453;PMS5003;22478;51.740;-1.314;2023-07-08T15:59:36;4;4;
36453;PMS5003;22478;51.740;-1.314;2023-07-08T16:04:52;4;4;
36453;PMS5003;22478;51.740;-1.314;2023-07-08T16:07:19;9;6;
36453;PMS5003;22478;51.740;-1.314;2023-07-08T16:09:47;4;4;
36453;PMS5003;22478;51.740;-1.314;2023-07-08T16:12:14;6;5;
36453;PMS5003;22478;51.740;-1.314;2023-07-08T16:14:46;8;5;
36453;PMS5003;22478;51.740;-1.314;2023-07-08T16:17:13;7;6;
36453;PMS5003;22478;51.740;-1.314;2023-07-08T16:19:41;4;3;
36453;PMS5003;22478;51.740;-1.314;2023-07-08T16:22:08;4;4;
36453;PMS5003;22478;51.740;-1.314;2023-07-08T16:24:36;5;5;
36453;PMS5003;22478;51.740;-1.314;2023-07-08T16:27:03;4;4;
36453;PMS5003;22478;51.740;-1.314;2023-07-08T16:29:31;4;3;
36453;PMS5003;22478;51.740;-1.314;2023-07-08T16:31:59;4;4;
36453;PMS5003;22478;51.740;-1.314;2023-07-08T16:34:26;6;4;
36453;PMS5003;22478;51.740;-1.314;2023-07-08T16:36:54;8;7;
36453;PMS5003;22478;51.740;-1.314;2023-07-08T16:39:21;6;5;